Time;durP1;ratioP1;P1;durP2;ratioP2;P2;SDS_P1;SDS_P2;PMS_P1;PMS_P2;Temp;Humidity;BMP_temperature;BMP_pressure;BME280_temperature;BME280_humidity;BME280_pressure;Samples;Min_cycle;Max_cycle;Signal;HPM_P1;HPM_P2
2021/10/25 00:01:17;;;;;;;0.00;0.00;;;;;;;7.26;75.75;100518.63;5028647;28;20033;-74
2021/10/25 00:03:43;;;;;;;0.00;0.00;;;;;;;7.33;75.70;100538.03;5030986;28;20029;-69
2021/10/25 00:06:08;;;;;;;0.00;0.00;;;;;;;7.29;75.46;100531.53;5030489;28;20025;-74
2021/10/25 00:08:34;;;;;;;0.00;0.00;;;;;;;7.28;75.49;100523.75;5029894;28;20129;-79
2021/10/25 00:11:00;;;;;;;0.00;0.00;;;;;;;7.27;75.52;100524.78;5029525;28;20407;-74
2021/10/25 00:13:26;;;;;;;0.00;0.00;;;;;;;7.30;75.60;100532.31;5030454;28;20032;-75
2021/10/25 00:15:51;;;;;;;0.00;0.00;;;;;;;7.25;75.65;100526.84;5030555;28;20041;-76
2021/10/25 00:18:16;;;;;;;0.00;0.00;;;;;;;7.25;75.93;100525.00;5027986;28;20505;-76
2021/10/25 00:20:42;;;;;;;0.00;0.00;;;;;;;7.26;76.63;100534.59;5030660;28;20033;-73
2021/10/25 00:23:08;;;;;;;0.00;0.00;;;;;;;7.25;76.17;100518.84;5019501;28;20112;-74
2021/10/25 00:25:34;;;;;;;0.00;0.00;;;;;;;7.32;76.70;100530.25;5026376;28;20108;-73
2021/10/25 00:28:00;;;;;;;0.00;0.00;;;;;;;7.32;76.45;100530.25;5027203;28;20057;-69
2021/10/25 00:30:25;;;;;;;0.00;0.00;;;;;;;7.24;76.35;100509.25;5017143;28;20066;-72
2021/10/25 00:32:50;;;;;;;0.00;0.00;;;;;;;7.22;76.34;100501.47;5016629;28;20040;-71
2021/10/25 00:35:16;;;;;;;0.00;0.00;;;;;;;7.27;76.34;100522.94;5033811;28;20033;-73
2021/10/25 00:37:41;;;;;;;0.25;0.25;;;;;;;7.27;76.57;100511.47;5032933;28;20411;-76
2021/10/25 00:40:08;;;;;;;0.00;0.00;;;;;;;7.30;76.47;100519.00;5032708;28;20037;-73
2021/10/25 00:42:33;;;;;;;0.00;0.00;;;;;;;7.31;76.77;100523.31;5034006;28;20046;-76
2021/10/25 00:44:59;;;;;;;0.00;0.00;;;;;;;7.23;77.09;100508.44;5032315;28;20095;-70
2021/10/25 00:47:25;;;;;;;0.00;0.00;;;;;;;7.30;76.53;100527.00;5030840;28;20029;-77
2021/10/25 00:49:50;;;;;;;0.00;0.00;;;;;;;7.25;76.36;100516.19;5028597;28;20120;-74
2021/10/25 00:52:18;;;;;;;0.00;0.00;;;;;;;7.19;75.74;100509.91;5032332;28;20201;-77
2021/10/25 00:54:45;;;;;;;0.00;0.00;;;;;;;7.28;76.16;100521.09;5023694;28;20492;-76
2021/10/25 00:57:10;;;;;;;0.00;0.00;;;;;;;7.18;75.90;100514.41;5013048;28;20034;-76
2021/10/25 00:59:36;;;;;;;0.00;0.00;;;;;;;7.19;75.63;100512.56;5012605;28;20041;-76
2021/10/25 01:02:01;;;;;;;0.00;0.00;;;;;;;7.17;75.52;100520.75;5018363;28;20033;-76
2021/10/25 01:04:27;;;;;;;0.00;0.00;;;;;;;7.13;75.56;100521.41;5032272;28;20036;-73
2021/10/25 01:06:54;;;;;;;0.00;0.00;;;;;;;7.12;75.24;100517.13;5028896;28;20029;-78
2021/10/25 01:09:20;;;;;;;0.00;0.00;;;;;;;7.07;74.52;100524.94;5031766;28;20033;-75
2021/10/25 01:11:48;;;;;;;0.00;0.00;;;;;;;7.05;74.55;100530.47;5031686;28;20037;-82
2021/10/25 01:14:15;;;;;;;0.00;0.00;;;;;;;6.98;74.78;100521.72;5032398;28;20552;-77
2021/10/25 01:16:41;;;;;;;0.00;0.00;;;;;;;6.94;74.46;100523.19;5029477;28;20449;-84
2021/10/25 01:19:06;;;;;;;0.00;0.00;;;;;;;6.83;74.15;100514.84;5028097;28;20176;-79
2021/10/25 01:21:32;;;;;;;0.00;0.00;;;;;;;6.74;73.92;100516.16;5031373;28;20036;-73
2021/10/25 01:23:58;;;;;;;0.00;0.00;;;;;;;6.71;74.32;100519.22;5030902;28;20447;-75
2021/10/25 01:26:24;;;;;;;0.00;0.00;;;;;;;6.58;74.09;100517.47;5031461;28;20128;-76
2021/10/25 01:28:52;;;;;;;0.00;0.00;;;;;;;6.52;74.71;100515.69;5032119;28;20104;-79
2021/10/25 01:31:19;;;;;;;0.00;0.00;;;;;;;6.56;75.26;100538.94;5031950;28;20033;-80
2021/10/25 01:33:45;;;;;;;0.00;0.00;;;;;;;6.49;75.16;100530.19;5031711;28;20057;-70
2021/10/25 01:36:11;;;;;;;0.30;0.30;;;;;;;6.36;74.35;100522.28;5032214;28;20425;-71
2021/10/25 01:38:36;;;;;;;0.00;0.00;;;;;;;6.41;75.01;100528.59;5027287;28;20564;-70
2021/10/25 01:41:01;;;;;;;0.00;0.00;;;;;;;6.34;75.22;100527.00;5032554;28;20103;-69
2021/10/25 01:43:27;;;;;;;0.00;0.00;;;;;;;6.22;74.83;100524.97;5032942;28;20033;-73
2021/10/25 01:45:53;;;;;;;0.00;0.00;;;;;;;6.22;75.53;100524.97;5031715;28;20125;-81
2021/10/25 01:48:18;;;;;;;0.00;0.00;;;;;;;6.21;75.38;100530.50;5030665;28;20582;-74
2021/10/25 01:50:44;;;;;;;0.00;0.00;;;;;;;6.19;75.13;100533.38;5014419;28;20042;-73
2021/10/25 01:53:10;;;;;;;0.00;0.00;;;;;;;6.07;75.55;100519.13;5028846;28;20040;-81
2021/10/25 01:55:35;;;;;;;0.00;0.00;;;;;;;6.09;74.98;100535.66;5030324;28;20080;-75
2021/10/25 01:58:02;;;;;;;0.00;0.00;;;;;;;6.07;75.13;100541.19;5031530;28;20502;-75
2021/10/25 02:00:28;;;;;;;0.20;0.20;;;;;;;6.06;75.26;100541.41;5031320;28;20445;-76
2021/10/25 02:02:53;;;;;;;0.00;0.00;;;;;;;5.99;75.90;100529.97;5031009;28;20029;-77
2021/10/25 02:05:19;;;;;;;0.00;0.00;;;;;;;5.92;75.99;100528.13;5031325;28;20033;-68
2021/10/25 02:07:45;;;;;;;0.00;0.00;;;;;;;5.84;75.47;100514.25;5031109;28;20101;-69
2021/10/25 02:10:11;;;;;;;0.00;0.00;;;;;;;5.87;75.75;100535.91;5031826;28;20623;-74
2021/10/25 02:12:37;;;;;;;0.00;0.00;;;;;;;5.79;75.73;100525.50;5030887;28;20037;-74
2021/10/25 02:15:03;;;;;;;0.00;0.00;;;;;;;5.85;75.83;100539.81;5031057;28;20033;-72
2021/10/25 02:17:29;;;;;;;0.00;0.00;;;;;;;5.80;76.21;100542.25;5031463;28;20037;-75
2021/10/25 02:19:54;;;;;;;0.00;0.00;;;;;;;5.75;76.09;100537.56;5032215;28;20694;-74
2021/10/25 02:22:20;;;;;;;0.00;0.00;;;;;;;5.73;75.80;100535.09;5030574;28;20482;-74
2021/10/25 02:24:47;;;;;;;0.00;0.00;;;;;;;5.72;76.10;100532.66;5020394;28;20025;-76
2021/10/25 02:27:13;;;;;;;0.00;0.00;;;;;;;5.67;76.24;100530.63;5011206;28;20034;-76
2021/10/25 02:29:39;;;;;;;0.00;0.00;;;;;;;5.69;76.42;100530.41;5012644;28;20402;-74
2021/10/25 02:32:06;;;;;;;0.00;0.00;;;;;;;5.66;76.47;100525.53;5030582;28;20120;-73
2021/10/25 02:34:32;;;;;;;0.00;0.00;;;;;;;5.61;77.21;100511.06;5031376;28;20038;-75
2021/10/25 02:36:59;;;;;;;0.08;0.08;;;;;;;5.69;76.68;100528.59;5031733;28;20057;-75
2021/10/25 02:39:25;;;;;;;0.00;0.00;;;;;;;5.73;77.09;100540.41;5031769;28;20668;-74
2021/10/25 02:41:51;;;;;;;0.00;0.00;;;;;;;5.73;77.22;100535.09;5030262;28;20080;-76
2021/10/25 02:44:17;;;;;;;0.00;0.00;;;;;;;5.72;76.72;100544.09;5030724;28;20628;-76
2021/10/25 02:46:43;;;;;;;0.00;0.00;;;;;;;5.71;77.25;100536.34;5029872;28;20030;-75
2021/10/25 02:49:08;;;;;;;0.00;0.00;;;;;;;5.63;77.42;100531.22;5021267;28;20041;-72
2021/10/25 02:51:34;;;;;;;0.00;0.00;;;;;;;5.65;76.86;100526.53;5010581;28;20037;-73
2021/10/25 02:53:59;;;;;;;0.00;0.00;;;;;;;5.70;76.82;100532.88;5012076;28;20033;-72
2021/10/25 02:56:25;;;;;;;0.10;0.10;;;;;;;5.64;76.77;100527.56;5011697;28;20033;-73
2021/10/25 02:58:51;;;;;;;0.00;0.00;;;;;;;5.67;77.15;100535.94;5010362;28;20034;-73
2021/10/25 03:01:16;;;;;;;0.00;0.00;;;;;;;5.67;77.16;100538.59;5012007;28;20034;-77
2021/10/25 03:03:43;;;;;;;0.00;0.00;;;;;;;5.66;76.97;100542.25;5029436;28;20037;-80
2021/10/25 03:06:08;;;;;;;0.00;0.00;;;;;;;5.38;77.03;100494.72;5030260;28;20040;-81
2021/10/25 03:08:34;;;;;;;0.00;0.00;;;;;;;5.57;77.19;100528.38;5029765;28;20037;-81
2021/10/25 03:10:59;;;;;;;0.00;0.00;;;;;;;5.56;76.87;100534.72;5029740;28;20033;-78
2021/10/25 03:13:25;;;;;;;0.00;0.00;;;;;;;5.55;76.85;100541.03;5030176;28;20025;-79
2021/10/25 03:15:51;;;;;;;0.00;0.00;;;;;;;5.51;76.86;100541.69;5029753;28;20033;-78
2021/10/25 03:18:17;;;;;;;0.00;0.00;;;;;;;5.32;77.11;100517.59;5029894;28;20030;-69
2021/10/25 03:20:44;;;;;;;0.17;0.17;;;;;;;5.43;77.03;100543.53;5030554;28;20032;-69
2021/10/25 03:23:10;;;;;;;0.08;0.08;;;;;;;5.31;76.79;100525.75;5029912;28;20108;-69
2021/10/25 03:25:36;;;;;;;0.00;0.00;;;;;;;5.39;76.88;100538.81;5031118;28;20487;-69
2021/10/25 03:28:02;;;;;;;0.00;0.00;;;;;;;5.35;76.90;100534.97;5031338;28;20037;-70
2021/10/25 03:30:28;;;;;;;0.00;0.00;;;;;;;5.18;77.12;100514.13;5030872;28;20033;-70
2021/10/25 03:32:53;;;;;;;0.00;0.00;;;;;;;5.32;77.12;100544.13;5030589;28;20037;-73
2021/10/25 03:35:19;;;;;;;0.10;0.10;;;;;;;5.26;77.36;100542.28;5030482;28;20037;-71
2021/10/25 03:37:44;;;;;;;0.00;0.00;;;;;;;5.19;77.06;100533.50;5029672;28;20052;-73
2021/10/25 03:40:10;;;;;;;0.00;0.00;;;;;;;5.14;77.19;100534.13;5031090;28;20033;-71
2021/10/25 03:42:48;;;;;;;0.00;0.00;;;;;;;5.14;77.13;100536.78;5029368;28;20042;-70
2021/10/25 03:48:08;;;;;;;0.00;0.00;;;;;;;5.07;77.38;100538.59;5030045;28;20041;-70
2021/10/25 03:50:36;;;;;;;0.00;0.00;;;;;;;4.95;77.88;100531.22;5029542;28;20029;-70
2021/10/25 03:53:13;;;;;;;0.00;0.00;;;;;;;5.00;77.35;100545.75;5031034;28;20501;-68
2021/10/25 04:28:18;;;;;;;0.00;0.00;;;;;;;4.73;77.57;100543.84;5029815;28;20061;-73
2021/10/25 04:30:44;;;;;;;0.00;0.00;;;;;;;4.68;77.99;100537.53;5045276;28;20168;-74
2021/10/25 04:33:09;;;;;;;0.00;0.00;;;;;;;4.70;78.27;100538.13;5029705;28;20110;-75
2021/10/25 04:35:35;;;;;;;0.00;0.00;;;;;;;4.67;79.14;100536.69;5028704;28;20452;-75
2021/10/25 04:38:00;;;;;;;0.00;0.00;;;;;;;4.70;79.22;100554.03;5030564;28;20048;-74
2021/10/25 04:40:27;;;;;;;0.00;0.00;;;;;;;4.68;78.59;100546.28;5028877;28;20140;-74
2021/10/25 04:42:52;;;;;;;0.00;0.00;;;;;;;4.70;78.81;100567.28;5028594;28;20045;-76
2021/10/25 04:45:19;;;;;;;0.03;0.03;;;;;;;4.69;78.65;100565.63;5028980;28;20514;-74
2021/10/25 04:47:45;;;;;;;0.00;0.00;;;;;;;4.72;78.65;100565.25;5029063;28;20399;-74
2021/10/25 04:50:11;;;;;;;0.00;0.00;;;;;;;4.72;78.58;100562.59;5029010;28;20406;-76
2021/10/25 04:52:37;;;;;;;0.00;0.00;;;;;;;4.71;78.63;100553.00;5028439;28;20041;-75
2021/10/25 04:55:05;;;;;;;0.00;0.00;;;;;;;4.65;78.96;100552.78;5029938;28;20167;-75
2021/10/25 04:57:30;;;;;;;0.00;0.00;;;;;;;4.75;78.41;100563.00;5029144;28;20029;-74
2021/10/25 04:59:56;;;;;;;0.00;0.00;;;;;;;4.74;78.54;100563.22;5028694;28;20056;-76
2021/10/25 05:02:22;;;;;;;0.00;0.00;;;;;;;4.76;78.61;100571.78;5045558;28;20037;-75
2021/10/25 05:04:47;;;;;;;0.00;0.00;;;;;;;4.77;78.79;100574.25;5029760;28;20033;-74
2021/10/25 05:07:13;;;;;;;0.00;0.00;;;;;;;4.83;78.65;100577.09;5028900;28;20047;-75
2021/10/25 05:09:38;;;;;;;0.00;0.00;;;;;;;4.87;78.44;100587.13;5028973;28;20030;-75
2021/10/25 05:12:04;;;;;;;0.00;0.00;;;;;;;4.89;78.54;100582.41;5032394;28;20479;-74
2021/10/25 05:14:30;;;;;;;0.10;0.10;;;;;;;4.92;78.47;100584.69;5032380;28;20064;-75
2021/10/25 05:16:56;;;;;;;0.10;0.10;;;;;;;5.01;78.45;100584.50;5032171;28;20063;-76
2021/10/25 05:19:21;;;;;;;0.00;0.00;;;;;;;5.11;78.30;100583.09;5032231;28;20038;-76
2021/10/25 05:21:47;;;;;;;0.03;0.03;;;;;;;5.25;78.55;100591.06;5032023;28;20496;-74
2021/10/25 05:24:12;;;;;;;0.00;0.00;;;;;;;5.36;77.92;100587.81;5032154;28;20033;-75
2021/10/25 05:26:38;;;;;;;0.00;0.00;;;;;;;5.52;77.60;100599.03;5031873;28;20036;-74
2021/10/25 05:29:03;;;;;;;0.00;0.00;;;;;;;5.66;77.84;100600.66;5033436;28;20434;-74
2021/10/25 05:31:29;;;;;;;0.10;0.10;;;;;;;5.79;77.07;100596.38;5032118;28;20037;-75
2021/10/25 05:33:56;;;;;;;0.00;0.00;;;;;;;5.93;76.91;100595.31;5033173;28;20437;-75
2021/10/25 05:36:22;;;;;;;0.00;0.00;;;;;;;6.08;76.71;100603.09;5033588;28;20471;-74
2021/10/25 05:38:48;;;;;;;0.10;0.10;;;;;;;6.16;76.97;100597.53;5031700;28;20091;-75
2021/10/25 05:41:14;;;;;;;0.00;0.00;;;;;;;6.36;76.24;100616.09;5031307;28;20136;-75
2021/10/25 05:43:42;;;;;;;0.00;0.00;;;;;;;6.51;75.69;100612.38;5031535;28;20026;-74
2021/10/25 05:46:08;;;;;;;0.00;0.00;;;;;;;6.58;75.52;100594.56;5031807;28;20037;-75
2021/10/25 05:48:34;;;;;;;0.00;0.00;;;;;;;6.78;74.69;100612.28;5031809;28;20064;-74
2021/10/25 05:51:02;;;;;;;0.10;0.10;;;;;;;6.85;74.38;100605.09;5031371;28;20037;-76
2021/10/25 05:53:28;;;;;;;0.10;0.10;;;;;;;7.07;73.98;100621.53;5031660;28;20025;-75
2021/10/25 05:55:54;;;;;;;0.00;0.00;;;;;;;7.23;72.88;100625.53;5031483;28;20037;-75
2021/10/25 05:58:23;;;;;;;0.00;0.00;;;;;;;7.36;72.42;100627.25;5031682;28;20029;-75
2021/10/25 06:01:00;;;;;;;0.00;0.00;;;;;;;7.51;72.61;100627.78;5032583;28;20021;-75
2021/10/25 06:03:27;;;;;;;0.00;0.00;;;;;;;7.64;71.83;100626.03;5031463;28;20025;-75
2021/10/25 06:05:53;;;;;;;0.00;0.00;;;;;;;7.79;71.83;100623.88;5031311;28;20052;-76
2021/10/25 06:08:19;;;;;;;0.00;0.00;;;;;;;7.88;71.07;100639.56;5031318;28;20037;-74
2021/10/25 06:10:45;;;;;;;0.00;0.00;;;;;;;7.90;70.94;100618.84;5032454;28;20037;-76
2021/10/25 06:13:19;;;;;;;0.00;0.00;;;;;;;8.07;69.94;100633.25;5031351;28;20596;-75
2021/10/25 06:15:53;;;;;;;0.00;0.00;;;;;;;8.18;69.78;100631.72;5031052;28;20102;-76
2021/10/25 06:18:19;;;;;;;0.10;0.10;;;;;;;8.31;69.53;100633.41;5032757;28;20053;-76
2021/10/25 06:20:44;;;;;;;0.00;0.00;;;;;;;8.45;69.28;100648.22;5031496;28;20076;-75
2021/10/25 06:23:12;;;;;;;0.10;0.10;;;;;;;8.51;68.96;100641.22;5032281;28;20387;-75
2021/10/25 06:25:39;;;;;;;0.00;0.00;;;;;;;8.69;68.09;100644.91;5032008;28;20032;-75
2021/10/25 06:28:06;;;;;;;0.00;0.00;;;;;;;8.67;68.76;100633.66;5032348;28;20030;-75
2021/10/25 06:30:33;;;;;;;0.00;0.00;;;;;;;8.83;68.39;100648.25;5032276;28;20100;-74
2021/10/25 06:32:58;;;;;;;0.00;0.00;;;;;;;8.91;68.35;100654.09;5031943;28;20030;-74
2021/10/25 06:35:26;;;;;;;0.00;0.00;;;;;;;8.99;68.47;100652.16;5030790;28;20109;-74
2021/10/25 06:38:11;;;;;;;0.00;0.00;;;;;;;9.06;68.62;100648.34;5030494;28;20021;-74
2021/10/25 06:40:38;;;;;;;0.10;0.10;;;;;;;9.18;69.33;100655.56;5030617;28;20054;-74
2021/10/25 06:43:04;;;;;;;0.10;0.10;;;;;;;9.26;68.79;100655.25;5030338;28;20024;-74
2021/10/25 06:45:29;;;;;;;0.10;0.10;;;;;;;9.34;68.92;100652.25;5030658;28;20029;-75
2021/10/25 06:47:55;;;;;;;0.00;0.00;;;;;;;9.49;68.73;100653.69;5030301;28;20022;-74
2021/10/25 06:50:26;;;;;;;0.00;0.00;;;;;;;9.65;68.47;100661.03;5030581;28;20483;-74
2021/10/25 06:53:05;;;;;;;0.10;0.10;;;;;;;9.78;68.41;100662.69;5030274;28;20171;-76
2021/10/25 06:55:32;;;;;;;1.38;1.30;;;;;;;9.89;67.97;100659.22;5030739;28;20055;-75
2021/10/25 06:57:58;;;;;;;0.00;0.00;;;;;;;9.97;66.89;100651.88;5046979;28;20037;-75
2021/10/25 07:00:23;;;;;;;0.00;0.00;;;;;;;9.99;67.05;100645.25;5030472;28;20059;-75
2021/10/25 07:02:49;;;;;;;0.10;0.10;;;;;;;10.13;66.85;100651.22;5030118;28;20033;-75
2021/10/25 07:05:15;;;;;;;0.55;0.55;;;;;;;9.99;66.53;100623.88;5030329;28;20029;-76
2021/10/25 07:07:40;;;;;;;0.00;0.00;;;;;;;10.29;66.03;100651.53;5030449;28;20029;-75
2021/10/25 07:10:08;;;;;;;0.00;0.00;;;;;;;10.32;65.32;100651.06;5030338;28;20033;-75
2021/10/25 07:12:33;;;;;;;0.30;0.30;;;;;;;10.37;65.23;100657.34;5030083;28;20125;-76
2021/10/25 07:15:00;;;;;;;0.17;0.17;;;;;;;10.34;62.97;100646.28;5046516;28;20025;-75
2021/10/25 07:17:35;;;;;;;0.10;0.10;;;;;;;10.39;61.50;100651.78;5030086;28;20478;-75
2021/10/25 07:20:21;;;;;;;0.47;0.47;;;;;;;10.25;60.01;100652.00;5030946;28;20025;-75
2021/10/25 07:59:24;;;;;;;2.63;1.17;;;;;;;10.04;62.48;100649.91;5030933;28;20060;-76
2021/10/25 08:09:26;;;;;;;0.52;0.52;;;;;;;9.96;62.25;100610.16;5030226;28;20134;-75
2021/10/25 08:11:47;;;;;;;0.00;0.00;;;;;;;10.13;63.03;100616.44;5029715;28;20092;-75
2021/10/25 08:14:14;;;;;;;0.10;0.10;;;;;;;10.21;62.91;100613.41;5029295;28;20414;-75
2021/10/25 08:19:23;;;;;;;1.05;1.05;;;;;;;10.24;60.98;100596.91;5030345;28;20101;-74
2021/10/25 08:21:56;;;;;;;0.40;0.40;;;;;;;10.36;61.55;100620.97;5029109;28;20040;-74
2021/10/25 08:24:23;;;;;;;0.20;0.20;;;;;;;10.34;61.69;100608.84;5029166;28;20034;-76
2021/10/25 08:26:50;;;;;;;0.43;0.43;;;;;;;10.41;61.14;100620.25;5028871;28;20084;-75
2021/10/25 08:29:17;;;;;;;0.00;0.00;;;;;;;10.41;61.01;100612.22;5045882;28;20034;-75
2021/10/25 08:31:45;;;;;;;0.00;0.00;;;;;;;10.47;61.63;100621.97;5029226;28;20032;-76
2021/10/25 08:39:52;;;;;;;0.00;0.00;;;;;;;10.46;61.87;100606.19;5030504;28;20057;-75
2021/10/25 08:42:25;;;;;;;0.20;0.20;;;;;;;10.46;60.87;100600.81;5028899;28;20049;-75
2021/10/25 08:45:01;;;;;;;0.00;0.00;;;;;;;10.52;61.08;100599.88;5032254;28;20053;-74
2021/10/25 08:47:32;;;;;;;0.10;0.10;;;;;;;10.59;61.05;100599.75;5033039;28;20033;-74
2021/10/25 08:49:58;;;;;;;0.00;0.00;;;;;;;10.58;60.15;100596.25;5033589;28;20025;-74
2021/10/25 08:52:25;;;;;;;0.00;0.00;;;;;;;10.69;60.18;100603.44;5049285;28;20037;-75
2021/10/25 08:54:52;;;;;;;0.00;0.00;;;;;;;10.64;58.42;100606.00;5032451;28;20026;-76
2021/10/25 08:57:23;;;;;;;0.00;0.00;;;;;;;10.62;59.24;100600.09;5032648;28;20055;-76
2021/10/25 09:00:33;;;;;;;0.15;0.15;;;;;;;10.68;58.60;100601.81;5032436;28;20057;-75
2021/10/25 09:03:01;;;;;;;0.40;0.40;;;;;;;10.63;58.19;100599.06;5032411;28;20492;-76
2021/10/25 09:05:27;;;;;;;1.65;0.43;;;;;;;10.65;57.78;100598.81;5033628;28;20061;-76
2021/10/25 09:08:05;;;;;;;0.03;0.03;;;;;;;10.76;59.87;100608.66;5032383;28;20087;-76
2021/10/25 09:10:36;;;;;;;0.00;0.00;;;;;;;10.87;58.96;100594.41;5032659;28;20032;-76
2021/10/25 09:13:20;;;;;;;0.10;0.10;;;;;;;10.93;55.33;100607.91;5032225;28;20060;-76
2021/10/25 09:16:06;;;;;;;0.00;0.00;;;;;;;11.02;55.84;100606.44;5032366;28;20021;-75
2021/10/25 09:18:32;;;;;;;0.13;0.13;;;;;;;11.04;55.11;100593.63;5031526;28;20040;-75
2021/10/25 09:21:01;;;;;;;0.00;0.00;;;;;;;11.12;54.89;100592.41;5032017;28;20533;-75
2021/10/25 09:23:31;;;;;;;;;;;;;;;11.12;51.63;100595.94;5032524;28;20036;-74
2021/10/25 09:26:03;;;;;;;0.10;0.10;;;;;;;11.03;52.07;100590.16;5031847;28;19913;-75
2021/10/25 09:28:34;;;;;;;0.10;0.10;;;;;;;10.99;53.37;100589.00;5032071;28;20122;-75
2021/10/25 09:31:03;;;;;;;0.00;0.00;;;;;;;10.88;53.58;100568.47;5032837;28;20033;-75
2021/10/25 09:33:36;;;;;;;0.10;0.10;;;;;;;10.91;53.47;100584.03;5033313;28;20546;-75
2021/10/25 09:36:07;;;;;;;0.00;0.00;;;;;;;10.93;54.52;100571.22;5031594;28;20040;-75
2021/10/25 09:38:46;;;;;;;0.20;0.20;;;;;;;10.97;54.66;100561.66;5031817;28;20045;-75
2021/10/25 09:49:10;;;;;;;0.05;0.05;;;;;;;11.11;48.57;100572.88;5032704;28;20030;-75
2021/10/25 09:51:41;;;;;;;;;;;;;;;11.17;49.99;100563.06;5032191;28;20067;-76
2021/10/25 09:54:08;;;;;;;0.08;0.08;;;;;;;11.16;50.52;100561.44;5031365;28;20294;-75
2021/10/25 09:56:44;;;;;;;9.85;1.35;;;;;;;11.02;49.77;100531.47;5030938;28;20036;-75
2021/10/25 10:01:42;;;;;;;3.88;1.05;;;;;;;11.24;51.57;100554.88;5032824;28;20636;-75
2021/10/25 10:04:09;;;;;;;0.10;0.10;;;;;;;11.30;51.43;100549.38;5031131;28;20481;-75
2021/10/25 10:06:36;;;;;;;0.10;0.10;;;;;;;11.34;51.69;100542.47;5031411;28;20030;-75
2021/10/25 10:09:02;;;;;;;0.00;0.00;;;;;;;11.34;51.44;100536.31;5031077;28;20030;-75
2021/10/25 10:11:28;;;;;;;0.35;0.35;;;;;;;11.42;51.91;100543.91;5031281;28;20119;-75
2021/10/25 10:13:54;;;;;;;0.08;0.08;;;;;;;11.42;52.48;100533.19;5030935;28;20072;-75
2021/10/25 10:16:19;;;;;;;0.35;0.35;;;;;;;11.52;52.45;100521.81;5031198;28;20033;-75
2021/10/25 10:18:52;;;;;;;1.20;1.00;;;;;;;11.65;52.72;100523.34;5031000;28;20037;-76
2021/10/25 10:21:18;;;;;;;0.63;0.63;;;;;;;11.59;52.49;100509.06;5031428;28;20087;-76
2021/10/25 10:23:50;;;;;;;1.77;0.55;;;;;;;11.64;53.88;100501.09;5031035;28;20033;-75
2021/10/25 10:26:16;;;;;;;0.55;0.55;;;;;;;11.73;53.52;100489.94;5030906;28;20490;-75
2021/10/25 10:28:50;;;;;;;0.20;0.20;;;;;;;11.74;52.67;100484.31;5030838;28;20043;-75
2021/10/25 10:31:26;;;;;;;0.10;0.10;;;;;;;11.87;52.67;100493.09;5030784;28;20029;-76
2021/10/25 10:33:55;;;;;;;0.00;0.00;;;;;;;11.79;51.99;100488.94;5030601;28;20039;-75
2021/10/25 10:36:27;;;;;;;0.13;0.13;;;;;;;11.84;51.80;100484.47;5030697;28;20021;-76
2021/10/25 10:39:04;;;;;;;0.00;0.00;;;;;;;11.90;49.82;100492.56;5030658;28;20068;-76
2021/10/25 10:41:42;;;;;;;0.10;0.10;;;;;;;11.85;49.21;100493.31;5030524;28;20110;-76
2021/10/25 10:44:11;;;;;;;0.00;0.00;;;;;;;11.87;49.95;100469.75;5030419;28;20032;-76
2021/10/25 10:46:52;;;;;;;0.03;0.03;;;;;;;11.93;49.38;100474.13;5030705;28;20030;-76
2021/10/25 10:49:31;;;;;;;0.10;0.10;;;;;;;11.93;49.79;100484.06;5030616;28;20025;-76
2021/10/25 10:52:30;;;;;;;0.10;0.10;;;;;;;11.90;48.83;100471.13;5030541;28;20033;-77
2021/10/25 10:55:09;;;;;;;0.17;0.17;;;;;;;11.76;47.70;100470.69;5019031;28;20437;-75
2021/10/25 11:00:38;;;;;;;0.40;0.40;;;;;;;11.83;46.76;100456.03;5031817;28;20034;-75
2021/10/25 11:03:24;;;;;;;0.50;0.50;;;;;;;11.86;46.07;100444.00;5046629;28;20029;-76
2021/10/25 11:06:00;;;;;;;0.00;0.00;;;;;;;11.93;46.30;100452.69;5030185;28;20033;-76
2021/10/25 11:08:47;;;;;;;11.45;1.30;;;;;;;11.99;46.01;100443.66;5031406;28;20091;-75
2021/10/25 11:11:15;;;;;;;0.20;0.20;;;;;;;12.04;45.92;100431.38;5029960;28;20504;-75
2021/10/25 11:13:49;;;;;;;0.13;0.13;;;;;;;12.08;46.41;100429.81;5030060;28;20468;-75
2021/10/25 11:16:22;;;;;;;0.10;0.10;;;;;;;12.20;47.91;100443.09;5029764;28;20029;-75
2021/10/25 11:18:50;;;;;;;0.20;0.20;;;;;;;12.16;46.72;100426.69;5029848;28;20120;-75
2021/10/25 11:21:22;;;;;;;0.10;0.10;;;;;;;12.19;46.50;100442.25;5029103;28;20079;-74
2021/10/25 11:24:03;;;;;;;0.03;0.03;;;;;;;12.15;46.04;100436.59;5029958;28;20478;-76
2021/10/25 11:26:36;;;;;;;0.00;0.00;;;;;;;12.09;47.24;100412.66;5029972;28;20040;-75
2021/10/25 11:29:09;;;;;;;0.10;0.10;;;;;;;12.13;46.69;100419.97;5029644;28;20067;-76
2021/10/25 11:31:42;;;;;;;0.10;0.10;;;;;;;12.19;44.32;100425.38;5029758;28;20026;-75
2021/10/25 11:34:14;;;;;;;0.95;0.95;;;;;;;12.20;44.56;100424.31;5030994;28;20056;-75
2021/10/25 11:37:10;;;;;;;0.20;0.20;;;;;;;12.23;45.11;100411.22;5029515;28;20116;-75
2021/10/25 11:40:05;;;;;;;0.08;0.08;;;;;;;12.31;45.72;100404.56;5029442;28;20040;-75
2021/10/25 11:42:42;;;;;;;0.00;0.00;;;;;;;12.31;45.12;100402.69;5027913;28;20392;-76
2021/10/25 11:45:14;;;;;;;0.20;0.20;;;;;;;12.30;45.39;100395.72;5045979;28;20120;-76
2021/10/25 11:47:45;;;;;;;0.00;0.00;;;;;;;12.35;44.75;100392.25;5031019;28;20036;-75
2021/10/25 11:50:16;;;;;;;0.10;0.10;;;;;;;12.35;44.99;100386.09;5029307;28;20034;-75
2021/10/25 11:52:43;;;;;;;0.00;0.00;;;;;;;12.43;44.25;100397.16;5031103;28;20041;-75
2021/10/25 11:55:12;;;;;;;0.00;0.00;;;;;;;12.41;43.43;100379.72;5029236;28;20029;-75
2021/10/25 11:57:45;;;;;;;0.00;0.00;;;;;;;12.53;44.16;100383.03;5029505;28;20144;-75
2021/10/25 12:00:12;;;;;;;0.52;0.52;;;;;;;12.58;44.34;100377.69;5029204;28;20560;-75
2021/10/25 12:02:38;;;;;;;0.13;0.13;;;;;;;12.57;43.05;100384.16;5029313;28;20067;-76
2021/10/25 12:05:05;;;;;;;0.05;0.05;;;;;;;12.44;42.77;100379.22;5029052;28;20120;-75
2021/10/25 12:07:31;;;;;;;0.20;0.20;;;;;;;12.50;42.84;100394.28;5029290;28;20025;-76
2021/10/25 12:10:02;;;;;;;0.00;0.00;;;;;;;12.51;43.34;100384.34;5029027;28;20109;-75
2021/10/25 12:12:28;;;;;;;0.40;0.40;;;;;;;12.53;43.48;100384.91;5030659;28;20501;-75
2021/10/25 12:15:04;;;;;;;0.43;0.43;;;;;;;12.52;44.71;100377.94;5028851;28;20026;-75
2021/10/25 12:17:33;;;;;;;0.10;0.10;;;;;;;12.52;44.56;100385.97;5029339;28;20025;-75
2021/10/25 12:20:11;;;;;;;1.17;0.85;;;;;;;12.45;44.84;100396.91;5031598;28;20598;-76
2021/10/25 12:22:38;;;;;;;0.00;0.00;;;;;;;12.40;45.19;100367.34;5033167;28;20037;-77
2021/10/25 12:25:04;;;;;;;0.22;0.22;;;;;;;12.48;45.58;100373.06;5033109;28;20128;-77
2021/10/25 12:27:41;;;;;;;0.00;0.00;;;;;;;12.46;44.87;100380.56;5033114;28;20042;-75
2021/10/25 12:30:19;;;;;;;0.00;0.00;;;;;;;12.44;44.30;100392.63;5033006;28;20419;-75
2021/10/25 12:33:01;;;;;;;0.00;0.00;;;;;;;12.34;44.70;100374.56;5033149;28;20039;-74
2021/10/25 12:35:33;;;;;;;0.40;0.40;;;;;;;12.49;44.63;100387.28;5033092;28;20029;-75
2021/10/25 12:38:05;;;;;;;0.10;0.10;;;;;;;12.47;44.00;100382.19;5049421;28;20056;-75
2021/10/25 12:40:38;;;;;;;0.00;0.00;;;;;;;12.52;44.30;100361.81;5032999;28;20026;-76
2021/10/25 12:43:04;;;;;;;0.10;0.10;;;;;;;12.62;44.44;100365.41;5032732;28;20029;-75
2021/10/25 12:45:51;;;;;;;0.00;0.00;;;;;;;12.69;44.54;100359.00;5034026;28;20075;-75
2021/10/25 12:48:17;;;;;;;0.10;0.10;;;;;;;12.66;43.25;100363.00;5033431;28;20034;-75
2021/10/25 12:50:45;;;;;;;0.20;0.20;;;;;;;12.66;43.37;100365.69;5032978;28;20666;-75
2021/10/25 12:53:12;;;;;;;0.03;0.03;;;;;;;12.67;43.43;100359.25;5032644;28;20033;-76
2021/10/25 12:55:40;;;;;;;1.10;0.63;;;;;;;12.67;43.54;100353.91;5032807;28;20264;-77
2021/10/25 12:58:11;;;;;;;0.00;0.00;;;;;;;12.72;43.10;100353.94;5032541;28;20071;-77
2021/10/25 13:00:38;;;;;;;0.00;0.00;;;;;;;12.74;43.19;100367.91;5032761;28;20326;-75
2021/10/25 13:03:11;;;;;;;0.45;0.45;;;;;;;12.63;41.99;100355.47;5032440;28;20084;-76
2021/10/25 13:05:39;;;;;;;0.10;0.10;;;;;;;12.64;42.57;100360.56;5032582;28;20030;-76
2021/10/25 13:08:08;;;;;;;0.10;0.10;;;;;;;12.65;42.20;100356.81;5032358;28;20034;-76
2021/10/25 13:10:38;;;;;;;0.10;0.10;;;;;;;12.48;42.73;100329.31;5032566;28;20034;-76
2021/10/25 13:13:06;;;;;;;0.10;0.10;;;;;;;12.61;42.19;100355.72;5032536;28;20175;-76
2021/10/25 13:15:33;;;;;;;0.25;0.25;;;;;;;12.65;42.78;100354.13;5032257;28;20398;-74
2021/10/25 13:18:00;;;;;;;0.10;0.10;;;;;;;12.59;42.28;100349.00;5032109;28;20418;-75